Time;durP1;ratioP1;P1;durP2;ratioP2;P2;SDS_P1;SDS_P2;PMS_P1;PMS_P2;Temp;Humidity;BMP_temperature;BMP_pressure;BME280_temperature;BME280_humidity;BME280_pressure;Samples;Min_cycle;Max_cycle;Signal;HPM_P1;HPM_P2
2023/06/28 00:02:10;;;;;;;3.90;2.30;;;19.90;79.50;;;;;;5949401;24;20818;-81
2023/06/28 00:04:37;;;;;;;6.47;2.63;;;19.90;79.60;;;;;;5951895;23;20777;-79
2023/06/28 00:07:07;;;;;;;3.77;2.27;;;19.90;79.40;;;;;;5933388;24;20504;-80
2023/06/28 00:09:34;;;;;;;4.30;2.50;;;19.90;79.60;;;;;;5947330;24;20456;-80
2023/06/28 00:12:01;;;;;;;3.23;2.83;;;19.90;79.70;;;;;;5946360;24;20561;-79
2023/06/28 00:14:28;;;;;;;3.03;2.73;;;19.90;79.60;;;;;;5934953;23;20448;-80
2023/06/28 00:16:55;;;;;;;6.47;2.90;;;19.80;79.50;;;;;;5943325;24;20454;-80
2023/06/28 00:19:27;;;;;;;3.33;2.83;;;19.80;80.10;;;;;;5942587;24;20442;-80
2023/06/28 00:21:54;;;;;;;3.20;2.60;;;19.80;80.20;;;;;;5943498;24;20464;-80
2023/06/28 00:24:21;;;;;;;4.73;2.30;;;19.80;80.20;;;;;;5943889;24;20535;-80
2023/06/28 00:26:48;;;;;;;2.67;2.47;;;19.80;80.70;;;;;;5936392;24;20452;-80
2023/06/28 00:29:15;;;;;;;2.60;2.23;;;19.80;81.00;;;;;;5919301;24;22733;-80
2023/06/28 00:31:43;;;;;;;2.70;2.10;;;19.80;81.10;;;;;;5937029;24;20466;-75
2023/06/28 00:34:09;;;;;;;4.03;2.03;;;19.80;81.10;;;;;;5938905;23;21498;-80
2023/06/28 00:36:38;;;;;;;4.80;2.60;;;19.80;81.80;;;;;;5943246;23;20468;-79
2023/06/28 00:39:05;;;;;;;2.27;1.90;;;19.80;83.10;;;;;;5939290;24;20482;-80
2023/06/28 00:41:32;;;;;;;3.03;2.10;;;19.90;85.40;;;;;;5945346;23;20552;-79
2023/06/28 00:43:59;;;;;;;4.90;2.40;;;19.90;86.00;;;;;;5935688;24;20458;-80
2023/06/28 00:46:27;;;;;;;3.53;2.33;;;19.80;85.70;;;;;;5926573;24;20447;-80
2023/06/28 00:48:54;;;;;;;4.30;2.37;;;19.80;85.30;;;;;;5938220;24;20513;-79
2023/06/28 00:51:22;;;;;;;3.17;2.17;;;19.80;84.90;;;;;;5944240;24;20509;-80
2023/06/28 00:53:50;;;;;;;4.60;2.50;;;19.70;84.70;;;;;;5951059;24;20502;-80
2023/06/28 00:56:17;;;;;;;2.90;2.07;;;19.70;84.40;;;;;;5943939;24;20449;-80
2023/06/28 00:58:44;;;;;;;2.93;2.03;;;19.70;84.20;;;;;;5936676;24;20776;-79
2023/06/28 01:01:12;;;;;;;3.80;2.30;;;19.60;84.20;;;;;;5944240;24;20463;-80
2023/06/28 01:03:39;;;;;;;3.50;2.57;;;19.60;84.30;;;;;;5947862;24;20561;-80
2023/06/28 01:06:06;;;;;;;5.00;2.50;;;19.60;84.50;;;;;;5927715;24;20438;-79
2023/06/28 01:08:35;;;;;;;2.83;2.23;;;19.60;84.50;;;;;;5950885;24;20443;-80
2023/06/28 01:11:03;;;;;;;2.80;2.50;;;19.60;84.60;;;;;;5950931;24;21142;-79
2023/06/28 01:13:31;;;;;;;4.23;2.27;;;19.60;85.60;;;;;;5943757;24;20558;-79
2023/06/28 01:15:58;;;;;;;2.77;2.43;;;19.60;85.10;;;;;;5939502;24;20529;-80
2023/06/28 01:18:25;;;;;;;2.80;2.00;;;19.60;85.60;;;;;;5938095;24;21019;-79
2023/06/28 01:20:54;;;;;;;4.23;2.17;;;19.60;85.60;;;;;;5936598;24;21034;-80
2023/06/28 01:23:26;;;;;;;2.63;2.00;;;19.50;85.60;;;;;;5935183;24;20452;-80
2023/06/28 01:25:53;;;;;;;6.57;2.37;;;19.50;85.90;;;;;;5945599;24;20463;-80
2023/06/28 01:28:21;;;;;;;2.50;1.93;;;19.50;86.10;;;;;;5951325;24;20427;-79
2023/06/28 01:30:49;;;;;;;4.23;2.30;;;19.50;86.20;;;;;;5948947;24;20476;-80
2023/06/28 01:33:17;;;;;;;2.50;2.30;;;19.50;86.20;;;;;;5938612;24;20900;-80
2023/06/28 01:35:44;;;;;;;3.00;2.30;;;19.50;87.10;;;;;;5936660;24;20993;-80
2023/06/28 01:38:13;;;;;;;5.70;2.33;;;19.50;88.60;;;;;;5943864;24;20449;-80
2023/06/28 01:40:42;;;;;;;4.37;2.60;;;19.50;89.20;;;;;;5934266;24;20461;-80
2023/06/28 01:43:10;;;;;;;4.37;2.47;;;19.50;89.90;;;;;;5953319;24;20461;-80
2023/06/28 01:45:38;;;;;;;2.50;2.30;;;19.40;90.00;;;;;;5946804;24;20443;-79
2023/06/28 01:48:05;;;;;;;5.33;2.50;;;19.30;90.70;;;;;;5951260;24;20482;-80
2023/06/28 01:50:33;;;;;;;3.03;2.47;;;19.20;91.10;;;;;;5933105;24;20841;-79
2023/06/28 01:53:01;;;;;;;5.60;2.30;;;19.10;91.60;;;;;;5944076;23;20477;-79
2023/06/28 01:55:29;;;;;;;4.40;2.33;;;19.10;92.00;;;;;;5932695;24;20525;-79
2023/06/28 01:57:57;;;;;;;3.93;2.50;;;19.10;92.10;;;;;;5939084;24;20441;-80
2023/06/28 02:00:25;;;;;;;2.50;2.17;;;19.10;91.70;;;;;;5945848;24;20444;-80
2023/06/28 02:02:52;;;;;;;4.50;2.27;;;19.00;91.60;;;;;;5934180;24;20431;-80
2023/06/28 02:05:20;;;;;;;3.37;2.40;;;19.00;91.80;;;;;;5941474;24;21017;-80
2023/06/28 02:07:47;;;;;;;2.50;2.17;;;19.00;92.30;;;;;;5948003;23;20524;-80
2023/06/28 02:10:14;;;;;;;5.30;2.80;;;18.90;93.60;;;;;;5931100;24;20987;-80
2023/06/28 02:12:41;;;;;;;3.00;2.20;;;18.80;93.20;;;;;;5935095;24;21064;-80
2023/06/28 02:15:10;;;;;;;3.73;2.40;;;18.80;93.10;;;;;;5939063;24;20481;-79
2023/06/28 02:17:37;;;;;;;2.67;2.10;;;18.80;93.20;;;;;;5951954;24;20516;-79
2023/06/28 02:20:06;;;;;;;6.00;2.50;;;18.70;93.00;;;;;;5942515;24;20455;-79
2023/06/28 02:22:33;;;;;;;4.43;2.47;;;18.70;93.00;;;;;;5935095;24;20447;-80
2023/06/28 02:25:00;;;;;;;2.90;2.43;;;18.70;93.60;;;;;;5943889;24;20512;-80
2023/06/28 02:27:27;;;;;;;2.47;2.27;;;18.60;93.50;;;;;;5937998;24;20444;-79
2023/06/28 02:29:56;;;;;;;3.60;2.30;;;18.50;93.70;;;;;;5939998;24;20477;-80
2023/06/28 02:32:24;;;;;;;4.57;2.90;;;18.40;93.50;;;;;;5946970;24;20930;-79
2023/06/28 02:34:52;;;;;;;5.10;2.73;;;18.30;93.90;;;;;;5947830;24;20454;-79
2023/06/28 02:37:19;;;;;;;5.03;3.13;;;18.30;94.10;;;;;;5940067;24;20457;-80
2023/06/28 02:39:46;;;;;;;4.73;2.77;;;18.30;94.40;;;;;;5944571;24;20510;-79
2023/06/28 02:42:13;;;;;;;3.50;2.70;;;18.20;94.70;;;;;;5938906;24;20466;-79
2023/06/28 02:44:40;;;;;;;2.70;2.50;;;18.20;95.30;;;;;;5948889;24;20526;-80
2023/06/28 02:47:07;;;;;;;3.70;2.53;;;18.20;95.60;;;;;;5932783;24;20494;-79
2023/06/28 02:49:35;;;;;;;2.73;2.40;;;18.10;96.00;;;;;;5939062;24;20539;-79
2023/06/28 02:52:02;;;;;;;4.00;2.50;;;18.10;96.60;;;;;;5947111;24;20572;-80
2023/06/28 02:54:29;;;;;;;3.70;2.80;;;18.00;97.10;;;;;;5944843;24;20522;-79
2023/06/28 02:56:57;;;;;;;3.93;2.77;;;18.00;97.30;;;;;;5944375;24;20526;-79
2023/06/28 02:59:24;;;;;;;3.00;2.60;;;17.90;97.70;;;;;;5936056;24;21077;-80
2023/06/28 03:01:51;;;;;;;5.73;3.60;;;17.90;98.30;;;;;;5943068;24;20534;-80
2023/06/28 03:04:18;;;;;;;3.43;3.13;;;17.80;98.80;;;;;;5930923;24;20439;-80
2023/06/28 03:06:50;;;;;;;6.70;3.00;;;17.80;98.90;;;;;;5936537;24;20529;-80
2023/06/28 03:09:17;;;;;;;3.00;2.70;;;17.70;99.40;;;;;;5938417;24;20457;-80
2023/06/28 03:11:44;;;;;;;3.40;2.40;;;17.80;99.60;;;;;;5939531;24;20447;-80
2023/06/28 03:14:11;;;;;;;3.30;2.43;;;17.70;99.80;;;;;;5935540;24;20503;-80
2023/06/28 03:16:39;;;;;;;4.00;2.97;;;17.70;99.80;;;;;;5933706;24;20446;-80
2023/06/28 03:19:06;;;;;;;2.90;2.60;;;17.60;99.90;;;;;;5920512;24;20439;-80
2023/06/28 03:21:33;;;;;;;4.47;2.60;;;17.60;99.90;;;;;;5936780;24;20466;-80
2023/06/28 03:24:02;;;;;;;3.87;3.13;;;17.60;99.90;;;;;;5938437;24;20453;-80
2023/06/28 03:26:29;;;;;;;2.93;2.60;;;17.70;99.90;;;;;;5943888;24;20469;-82
2023/06/28 03:28:58;;;;;;;5.10;2.97;;;17.60;99.90;;;;;;5941892;24;20539;-81
2023/06/28 03:31:25;;;;;;;2.83;2.53;;;17.60;99.90;;;;;;5940468;23;21004;-80
2023/06/28 03:33:52;;;;;;;4.17;2.80;;;17.70;99.90;;;;;;5932056;24;21063;-82
2023/06/28 03:36:20;;;;;;;3.30;2.47;;;17.70;99.90;;;;;;5944531;24;20506;-81
2023/06/28 03:38:47;;;;;;;4.40;2.70;;;17.70;99.90;;;;;;5947530;24;20546;-81
2023/06/28 03:41:15;;;;;;;2.80;2.60;;;17.70;99.90;;;;;;5944757;24;20466;-81
2023/06/28 03:43:42;;;;;;;4.03;2.83;;;17.70;99.90;;;;;;5928842;23;20528;-80
2023/06/28 03:46:10;;;;;;;3.40;2.97;;;17.70;99.90;;;;;;5934476;24;21360;-79
2023/06/28 03:48:37;;;;;;;4.50;2.70;;;17.70;99.90;;;;;;5927702;23;20990;-80
2023/06/28 03:51:04;;;;;;;4.53;2.70;;;17.70;99.90;;;;;;5933998;24;20471;-81
2023/06/28 03:53:31;;;;;;;2.60;2.40;;;17.70;99.90;;;;;;5946890;24;20553;-79
2023/06/28 03:55:58;;;;;;;5.23;2.73;;;17.70;99.90;;;;;;5940816;24;20443;-79
2023/06/28 03:58:27;;;;;;;2.97;2.53;;;17.70;99.90;;;;;;5938689;24;20453;-79
2023/06/28 04:00:54;;;;;;;3.17;2.73;;;17.70;99.90;;;;;;5933935;24;20485;-79
2023/06/28 04:03:21;;;;;;;4.73;2.67;;;17.80;99.90;;;;;;5945720;24;20442;-78
2023/06/28 04:05:48;;;;;;;6.30;2.90;;;17.80;99.90;;;;;;5930979;24;20453;-79
2023/06/28 04:08:16;;;;;;;3.33;2.70;;;17.90;99.90;;;;;;5945793;24;20540;-81
2023/06/28 04:10:43;;;;;;;5.60;2.97;;;17.90;99.90;;;;;;5932121;23;20472;-79
2023/06/28 04:13:11;;;;;;;3.83;2.60;;;17.90;99.90;;;;;;5947076;24;20569;-79
2023/06/28 04:15:42;;;;;;;3.27;2.73;;;18.00;99.90;;;;;;5933875;24;20439;-80
2023/06/28 04:18:09;;;;;;;3.87;2.47;;;18.00;99.90;;;;;;5943188;24;20474;-78
2023/06/28 04:20:36;;;;;;;5.40;2.87;;;17.90;99.90;;;;;;5941323;24;20490;-79
2023/06/28 04:23:03;;;;;;;2.97;2.63;;;17.90;99.90;;;;;;5933381;24;20439;-80
2023/06/28 04:25:30;;;;;;;3.50;2.60;;;17.90;99.90;;;;;;5944811;24;20442;-78
2023/06/28 04:27:57;;;;;;;6.80;3.07;;;17.80;99.90;;;;;;5940573;24;20483;-78
2023/06/28 04:30:25;;;;;;;4.03;2.40;;;17.80;99.90;;;;;;5938931;24;20993;-77
2023/06/28 04:32:53;;;;;;;7.43;3.63;;;17.80;99.90;;;;;;5930066;24;20466;-78
2023/06/28 04:35:21;;;;;;;3.30;3.00;;;17.80;99.90;;;;;;5928354;24;20447;-78
2023/06/28 04:37:50;;;;;;;4.50;2.53;;;17.70;99.90;;;;;;5936748;24;20475;-80
2023/06/28 04:40:17;;;;;;;3.27;2.43;;;17.70;99.90;;;;;;5907245;24;21004;-78
2023/06/28 04:42:44;;;;;;;3.10;2.80;;;17.70;99.90;;;;;;5936361;24;21319;-76
2023/06/28 04:45:11;;;;;;;4.13;2.70;;;17.70;99.90;;;;;;5929736;24;20533;-78
2023/06/28 04:47:39;;;;;;;3.20;2.60;;;17.70;99.90;;;;;;5930247;24;20451;-78
2023/06/28 04:50:08;;;;;;;4.83;2.97;;;17.70;99.90;;;;;;5931058;24;20477;-79
2023/06/28 04:52:35;;;;;;;3.00;2.70;;;17.80;99.90;;;;;;5933862;24;20447;-79
2023/06/28 04:55:03;;;;;;;2.90;2.50;;;17.80;99.90;;;;;;5924862;24;20467;-81
2023/06/28 04:57:30;;;;;;;3.87;2.57;;;17.80;99.90;;;;;;5915130;24;21895;-81
2023/06/28 04:59:57;;;;;;;3.73;2.80;;;17.80;99.90;;;;;;5918098;24;20471;-81
2023/06/28 05:02:25;;;;;;;4.80;2.90;;;17.90;99.90;;;;;;5936090;24;20486;-80
2023/06/28 05:04:52;;;;;;;4.80;2.67;;;18.00;99.90;;;;;;5939172;24;20496;-80
2023/06/28 05:07:20;;;;;;;4.40;2.83;;;18.00;99.90;;;;;;5935573;24;20479;-80
2023/06/28 05:09:48;;;;;;;3.63;3.33;;;18.10;99.90;;;;;;5943386;24;21070;-80
2023/06/28 05:12:15;;;;;;;3.47;3.17;;;18.10;99.90;;;;;;5945857;24;20530;-81
2023/06/28 05:14:42;;;;;;;2.83;2.63;;;18.10;99.90;;;;;;5929797;24;21610;-78
2023/06/28 05:17:09;;;;;;;4.77;2.83;;;18.20;99.90;;;;;;5938759;24;20530;-80
2023/06/28 05:19:37;;;;;;;2.80;2.60;;;18.20;99.90;;;;;;5936033;24;20465;-79
2023/06/28 05:22:06;;;;;;;3.57;2.80;;;18.20;99.90;;;;;;5926430;24;20442;-81
2023/06/28 05:24:34;;;;;;;4.30;2.57;;;18.20;99.90;;;;;;5927319;24;20847;-80
2023/06/28 05:27:01;;;;;;;5.57;3.90;;;18.30;99.90;;;;;;5933181;24;20534;-80
2023/06/28 05:29:29;;;;;;;3.40;2.93;;;18.30;99.90;;;;;;5929242;24;20470;-81
2023/06/28 05:31:56;;;;;;;3.57;2.80;;;18.30;99.90;;;;;;5924273;24;20447;-80
2023/06/28 05:34:23;;;;;;;3.50;3.00;;;18.30;99.90;;;;;;5928635;24;21042;-81
2023/06/28 05:36:50;;;;;;;3.77;2.97;;;18.30;99.90;;;;;;5931063;24;20470;-80
2023/06/28 05:39:17;;;;;;;4.13;3.00;;;18.30;99.90;;;;;;5929266;24;20486;-81
2023/06/28 05:41:46;;;;;;;4.10;2.77;;;18.30;99.90;;;;;;5922625;24;20452;-80
2023/06/28 05:44:15;;;;;;;3.10;2.73;;;18.40;99.90;;;;;;5923049;24;21124;-81
2023/06/28 05:46:42;;;;;;;3.60;3.20;;;18.40;99.90;;;;;;5923739;24;21254;-81
2023/06/28 05:49:09;;;;;;;4.27;2.50;;;18.40;99.90;;;;;;5929580;24;20486;-80
2023/06/28 05:51:36;;;;;;;4.67;3.03;;;18.50;99.90;;;;;;5934133;24;20534;-81
2023/06/28 05:54:04;;;;;;;4.83;3.30;;;18.50;99.90;;;;;;5937111;24;21051;-80
2023/06/28 05:56:31;;;;;;;3.43;2.80;;;18.50;99.90;;;;;;5918781;24;20837;-80
2023/06/28 05:58:59;;;;;;;3.20;2.90;;;18.60;99.90;;;;;;5912969;24;20444;-81
2023/06/28 06:01:26;;;;;;;3.37;2.80;;;18.60;99.90;;;;;;5922102;24;20519;-80
2023/06/28 06:03:54;;;;;;;4.93;2.77;;;18.70;99.90;;;;;;5910192;24;20439;-82
2023/06/28 06:06:20;;;;;;;5.30;2.40;;;18.80;99.80;;;;;;5928325;24;20509;-81
2023/06/28 06:08:47;;;;;;;4.60;2.80;;;18.80;99.40;;;;;;5930132;24;20519;-80
2023/06/28 06:11:15;;;;;;;4.57;2.73;;;18.80;99.80;;;;;;5928902;24;20530;-81
2023/06/28 06:13:42;;;;;;;3.63;2.50;;;18.80;99.90;;;;;;5927908;24;20571;-81
2023/06/28 06:16:10;;;;;;;3.73;2.57;;;18.90;99.40;;;;;;5936866;24;20443;-81
2023/06/28 06:18:40;;;;;;;3.23;2.90;;;19.00;99.80;;;;;;5936553;24;20971;-81
2023/06/28 06:21:07;;;;;;;3.30;2.80;;;19.10;99.60;;;;;;5930832;24;20467;-81
2023/06/28 06:23:34;;;;;;;5.70;3.00;;;19.20;99.70;;;;;;5929853;23;20439;-81
2023/06/28 06:26:01;;;;;;;4.60;2.80;;;19.20;99.60;;;;;;5936447;24;20529;-81
2023/06/28 06:28:28;;;;;;;2.97;2.60;;;19.20;99.80;;;;;;5936365;24;20439;-81
2023/06/28 06:30:55;;;;;;;4.30;2.80;;;19.20;99.90;;;;;;5932233;24;20514;-81
2023/06/28 06:33:24;;;;;;;5.30;3.20;;;19.20;99.90;;;;;;5935459;24;20459;-80
2023/06/28 06:35:51;;;;;;;4.93;2.30;;;19.10;99.90;;;;;;5932972;24;20435;-81
2023/06/28 06:38:17;;;;;;;4.37;2.50;;;19.20;99.90;;;;;;5937867;24;20994;-81
2023/06/28 06:40:45;;;;;;;3.43;2.67;;;19.20;99.80;;;;;;5932214;24;21103;-82
2023/06/28 06:43:12;;;;;;;4.83;2.80;;;19.20;99.40;;;;;;5930019;24;20497;-80
2023/06/28 06:45:39;;;;;;;3.53;3.10;;;19.20;99.60;;;;;;5936006;24;20462;-81
2023/06/28 06:48:06;;;;;;;2.70;2.37;;;19.20;99.90;;;;;;5950405;23;20450;-81
2023/06/28 06:50:35;;;;;;;2.83;2.20;;;19.30;99.70;;;;;;5934067;24;20455;-81
2023/06/28 06:53:02;;;;;;;5.10;2.50;;;19.40;99.90;;;;;;5934236;24;21330;-81
2023/06/28 06:55:29;;;;;;;3.57;2.60;;;19.40;99.20;;;;;;5938172;24;20443;-81
2023/06/28 06:57:56;;;;;;;3.33;2.60;;;19.50;99.20;;;;;;5950978;24;20508;-71
2023/06/28 07:00:23;;;;;;;4.83;2.77;;;19.50;99.30;;;;;;5929667;24;20478;-74
2023/06/28 07:02:50;;;;;;;3.80;2.80;;;19.60;99.50;;;;;;5943552;24;20812;-82
2023/06/28 07:05:18;;;;;;;3.90;2.40;;;19.60;99.50;;;;;;5955183;24;20462;-82
2023/06/28 07:07:46;;;;;;;3.90;2.50;;;19.60;99.20;;;;;;5955105;24;20437;-82
2023/06/28 07:10:13;;;;;;;5.03;2.13;;;19.70;97.90;;;;;;5931108;24;20466;-82
2023/06/28 07:12:41;;;;;;;4.17;2.70;;;19.80;98.10;;;;;;5947443;24;20438;-82
2023/06/28 07:15:09;;;;;;;5.30;2.37;;;19.90;98.00;;;;;;5931048;24;21233;-82
2023/06/28 07:17:37;;;;;;;4.97;2.60;;;20.00;97.80;;;;;;5951143;24;20935;-82
2023/06/28 07:20:05;;;;;;;3.77;3.00;;;20.10;95.70;;;;;;5951515;24;20468;-80
2023/06/28 07:22:32;;;;;;;3.00;2.47;;;20.20;94.90;;;;;;5939826;24;20505;-84
2023/06/28 07:25:02;;;;;;;3.00;2.27;;;20.20;94.30;;;;;;5949305;24;20453;-81
2023/06/28 07:27:29;;;;;;;2.57;2.00;;;20.30;94.30;;;;;;5949064;24;20493;-82
2023/06/28 07:29:56;;;;;;;4.60;2.50;;;20.40;93.70;;;;;;5950149;24;20481;-82
2023/06/28 07:32:26;;;;;;;7.43;3.43;;;20.40;93.70;;;;;;5954981;24;20468;-82
2023/06/28 07:34:54;;;;;;;9.53;3.37;;;20.50;96.60;;;;;;5942793;24;20531;-82
2023/06/28 07:37:21;;;;;;;5.67;3.27;;;20.50;98.50;;;;;;5950378;24;20439;-83
2023/06/28 07:39:49;;;;;;;4.17;2.60;;;20.60;98.90;;;;;;5956597;23;20859;-83
2023/06/28 07:42:18;;;;;;;7.03;3.33;;;20.70;98.70;;;;;;5949313;24;20922;-82
2023/06/28 07:44:45;;;;;;;7.50;3.33;;;20.70;98.60;;;;;;5951731;24;20483;-85
2023/06/28 07:47:12;;;;;;;3.53;2.60;;;20.50;98.50;;;;;;5943411;24;20541;-83
2023/06/28 07:49:39;;;;;;;13.47;3.83;;;20.60;99.00;;;;;;5940456;24;20464;-81
2023/06/28 07:52:07;;;;;;;43.83;6.77;;;20.70;98.90;;;;;;5938256;24;21873;-82
2023/06/28 07:54:34;;;;;;;5.70;3.00;;;20.70;98.90;;;;;;5945628;24;21205;-84
2023/06/28 07:57:01;;;;;;;6.30;2.97;;;20.90;98.50;;;;;;5937988;24;20445;-84
2023/06/28 07:59:30;;;;;;;3.27;2.83;;;21.00;98.50;;;;;;5945596;24;20450;-84
2023/06/28 08:01:57;;;;;;;6.70;3.00;;;21.10;98.30;;;;;;5943808;24;20532;-84
2023/06/28 08:04:24;;;;;;;4.90;3.43;;;21.00;97.70;;;;;;5953065;24;21304;-85
2023/06/28 08:06:51;;;;;;;6.03;3.00;;;21.00;98.50;;;;;;5953911;24;20467;-84
2023/06/28 08:09:18;;;;;;;3.97;3.53;;;20.90;98.00;;;;;;5934194;24;21521;-85
2023/06/28 08:11:45;;;;;;;5.00;3.10;;;21.10;98.30;;;;;;5950503;24;20526;-82
2023/06/28 08:14:12;;;;;;;5.40;3.37;;;21.00;96.00;;;;;;5947159;24;20977;-85
2023/06/28 08:16:41;;;;;;;6.50;3.85;;;21.00;96.40;;;;;;5954300;24;20434;-87
2023/06/28 08:19:09;;;;;;;4.53;3.37;;;21.10;97.60;;;;;;5946367;24;20245;-86
2023/06/28 08:21:37;;;;;;;5.67;4.30;;;21.10;97.40;;;;;;5952583;24;20634;-86
2023/06/28 08:24:05;;;;;;;5.20;3.53;;;21.30;96.80;;;;;;5948159;24;20449;-83
2023/06/28 08:26:35;;;;;;;5.30;3.80;;;21.30;95.90;;;;;;5949687;24;20565;-88
2023/06/28 08:29:03;;;;;;;5.10;2.60;;;21.30;95.40;;;;;;5936090;24;20959;-87
2023/06/28 08:31:30;;;;;;;5.07;2.93;;;21.50;93.90;;;;;;5948311;24;20452;-86
2023/06/28 08:33:58;;;;;;;5.13;3.20;;;21.30;93.20;;;;;;5942272;24;20483;-77
2023/06/28 08:36:25;;;;;;;4.60;2.77;;;21.30;94.30;;;;;;5947234;24;20431;-76
2023/06/28 08:38:52;;;;;;;4.97;3.00;;;21.50;95.50;;;;;;5956828;24;21005;-77
2023/06/28 08:41:20;;;;;;;5.03;3.30;;;21.50;95.60;;;;;;5956022;24;20525;-76
2023/06/28 08:43:51;;;;;;;4.20;2.60;;;21.60;95.50;;;;;;5941730;24;20501;-77
2023/06/28 08:46:18;;;;;;;4.97;3.30;;;21.90;94.70;;;;;;5954830;24;21110;-77
2023/06/28 08:48:47;;;;;;;4.03;2.53;;;22.10;95.20;;;;;;5950005;24;20455;-75
2023/06/28 08:51:16;;;;;;;4.63;2.83;;;22.20;93.70;;;;;;5950298;24;20528;-75
2023/06/28 08:53:45;;;;;;;168.13;17.60;;;22.40;93.60;;;;;;5935072;24;20471;-75
2023/06/28 08:56:12;;;;;;;4.80;2.60;;;22.40;92.70;;;;;;5948329;24;20918;-76
2023/06/28 08:58:41;;;;;;;3.63;2.87;;;22.50;93.40;;;;;;5951593;24;20431;-77
2023/06/28 09:01:09;;;;;;;3.63;2.63;;;22.60;93.20;;;;;;5936730;24;21832;-76
2023/06/28 09:03:40;;;;;;;3.10;2.43;;;22.50;92.10;;;;;;5949837;24;20500;-79
2023/06/28 09:06:08;;;;;;;3.57;2.60;;;22.60;92.70;;;;;;5952135;24;20455;-76
2023/06/28 09:08:37;;;;;;;4.03;2.50;;;22.80;93.20;;;;;;5946255;24;20863;-77
2023/06/28 09:11:04;;;;;;;5.30;2.67;;;23.00;92.70;;;;;;5938068;24;20469;-77
2023/06/28 09:13:31;;;;;;;7.80;2.83;;;23.20;91.00;;;;;;5956285;24;20426;-78
2023/06/28 09:15:58;;;;;;;4.23;2.57;;;23.30;89.00;;;;;;5944881;24;21072;-78
2023/06/28 09:18:25;;;;;;;3.20;2.87;;;23.40;88.90;;;;;;5941838;24;21196;-76
2023/06/28 09:20:54;;;;;;;28.37;5.83;;;23.60;89.30;;;;;;5943020;24;20450;-75
2023/06/28 09:23:25;;;;;;;5.27;2.37;;;23.70;86.10;;;;;;5951821;24;20431;-75
2023/06/28 09:25:54;;;;;;;22.33;5.00;;;23.60;85.80;;;;;;5947091;24;20454;-76
2023/06/28 09:28:24;;;;;;;4.60;2.57;;;23.80;85.60;;;;;;5954078;23;20443;-78
2023/06/28 09:30:54;;;;;;;5.77;2.87;;;24.00;84.30;;;;;;5951850;24;20528;-76
2023/06/28 09:33:22;;;;;;;3.00;2.60;;;23.80;83.80;;;;;;5942916;24;20443;-77
2023/06/28 09:35:53;;;;;;;3.20;2.80;;;23.20;82.80;;;;;;5953329;24;20552;-77
2023/06/28 09:38:21;;;;;;;5.93;2.20;;;23.20;83.70;;;;;;5956660;24;20431;-77
2023/06/28 09:40:55;;;;;;;3.50;2.40;;;23.20;83.70;;;;;;5955253;23;20973;-78
2023/06/28 09:43:22;;;;;;;5.70;2.50;;;23.20;84.40;;;;;;5943069;24;21173;-77
2023/06/28 09:45:50;;;;;;;4.47;2.27;;;23.10;83.30;;;;;;5934003;24;20439;-77
2023/06/28 09:48:22;;;;;;;6.23;2.00;;;22.90;85.40;;;;;;5950063;23;20434;-77
2023/06/28 09:50:50;;;;;;;3.03;2.27;;;23.30;85.40;;;;;;5931999;24;20483;-78
2023/06/28 09:53:19;;;;;;;4.43;2.00;;;23.60;84.30;;;;;;5957102;24;20489;-78
2023/06/28 09:55:47;;;;;;;5.07;2.60;;;24.00;83.00;;;;;;5948385;24;20511;-77
2023/06/28 09:58:17;;;;;;;2.60;2.40;;;24.30;83.70;;;;;;5953843;24;20466;-78
2023/06/28 10:00:46;;;;;;;3.63;2.80;;;24.90;82.60;;;;;;5943125;24;20474;-77
2023/06/28 10:03:14;;;;;;;4.87;2.30;;;25.30;79.70;;;;;;5947909;24;20439;-77
2023/06/28 10:05:43;;;;;;;3.60;2.17;;;25.30;80.60;;;;;;5947807;24;21124;-78
2023/06/28 10:08:12;;;;;;;3.40;2.40;;;25.50;78.90;;;;;;5955738;24;20440;-78
2023/06/28 10:10:40;;;;;;;7.33;2.20;;;25.50;77.90;;;;;;5948611;23;20466;-80
2023/06/28 10:13:09;;;;;;;3.67;2.03;;;25.20;77.00;;;;;;5956143;24;20459;-76
2023/06/28 10:15:44;;;;;;;4.80;2.27;;;25.00;77.30;;;;;;5953838;24;20558;-74
2023/06/28 10:18:13;;;;;;;2.83;2.20;;;25.10;76.30;;;;;;5953019;24;20505;-74
2023/06/28 10:20:41;;;;;;;4.83;2.00;;;24.90;77.10;;;;;;5942469;24;20432;-75
2023/06/28 10:23:11;;;;;;;3.10;2.00;;;24.90;78.80;;;;;;5965573;24;20425;-76
2023/06/28 10:25:40;;;;;;;6.23;2.30;;;24.70;79.20;;;;;;5951380;24;20435;-76
2023/06/28 10:28:06;;;;;;;3.67;2.40;;;24.50;78.00;;;;;;5938004;24;21096;-75
2023/06/28 10:30:34;;;;;;;4.53;2.70;;;24.30;79.10;;;;;;5933919;24;20462;-74
2023/06/28 10:33:03;;;;;;;4.10;2.70;;;24.30;77.90;;;;;;5930838;24;20489;-76
2023/06/28 10:35:30;;;;;;;4.47;2.00;;;24.60;77.80;;;;;;5946496;24;20467;-75
2023/06/28 10:37:58;;;;;;;6.23;2.27;;;25.20;79.10;;;;;;5954432;24;21349;-74
2023/06/28 10:40:26;;;;;;;3.20;2.23;;;25.70;77.00;;;;;;5956939;24;20484;-74
2023/06/28 10:42:53;;;;;;;4.80;2.27;;;26.00;74.30;;;;;;5956040;24;20461;-74
2023/06/28 10:45:33;;;;;;;2.80;2.20;;;26.00;73.50;;;;;;5943857;24;20463;-75
2023/06/28 10:48:02;;;;;;;2.30;2.10;;;26.40;75.50;;;;;;5952527;24;20985;-75
2023/06/28 10:50:30;;;;;;;3.90;1.97;;;26.60;73.70;;;;;;5949293;24;20459;-74
2023/06/28 10:53:00;;;;;;;2.57;2.00;;;26.40;73.80;;;;;;5949631;24;20439;-76
2023/06/28 10:55:31;;;;;;;3.70;2.23;;;26.20;74.40;;;;;;5944864;24;20554;-75
2023/06/28 10:58:05;;;;;;;5.17;2.17;;;26.40;73.80;;;;;;5946867;24;20447;-74
2023/06/28 11:00:43;;;;;;;5.57;2.10;;;26.80;73.10;;;;;;5955662;24;20477;-75
2023/06/28 11:03:13;;;;;;;2.93;2.13;;;27.00;70.80;;;;;;5954231;24;20437;-76
2023/06/28 11:05:52;;;;;;;4.30;2.23;;;26.90;70.20;;;;;;5942925;24;20698;-75
2023/06/28 11:08:19;;;;;;;3.00;1.83;;;27.10;71.50;;;;;;5947911;24;20438;-82
2023/06/28 11:10:48;;;;;;;5.60;2.77;;;27.30;71.60;;;;;;5929958;24;20526;-79
2023/06/28 11:13:30;;;;;;;5.73;2.50;;;27.40;70.70;;;;;;5941176;23;20523;-86
2023/06/28 11:16:07;;;;;;;2.30;2.10;;;27.60;70.40;;;;;;5947888;24;20471;-86
2023/06/28 11:18:35;;;;;;;2.70;2.20;;;27.30;70.10;;;;;;5948873;24;20479;-76
2023/06/28 11:21:03;;;;;;;3.00;2.03;;;27.50;68.80;;;;;;5943554;24;20531;-85
2023/06/28 11:23:36;;;;;;;5.80;2.27;;;27.90;69.10;;;;;;5934075;24;20978;-83
2023/06/28 11:26:05;;;;;;;2.80;2.17;;;28.20;68.40;;;;;;5938084;24;20630;-82
2023/06/28 11:28:34;;;;;;;3.73;2.07;;;28.50;67.30;;;;;;5942971;24;20462;-81
2023/06/28 11:31:14;;;;;;;4.20;2.00;;;28.70;66.20;;;;;;5948234;24;20438;-82
2023/06/28 11:33:44;;;;;;;2.70;2.17;;;28.80;66.60;;;;;;5942212;24;20446;-74
2023/06/28 11:36:13;;;;;;;5.80;2.60;;;29.30;65.20;;;;;;5945883;24;20875;-84
2023/06/28 11:38:45;;;;;;;3.07;1.70;;;29.10;65.80;;;;;;5949997;23;20455;-72
2023/06/28 11:41:14;;;;;;;2.90;1.70;;;28.90;65.00;;;;;;5953847;24;21038;-72
2023/06/28 11:43:42;;;;;;;3.47;2.17;;;28.90;64.20;;;;;;5955367;24;20432;-78
2023/06/28 11:46:09;;;;;;;4.87;2.20;;;29.10;64.10;;;;;;5946921;24;20451;-75
2023/06/28 11:48:37;;;;;;;3.50;2.00;;;29.10;63.30;;;;;;5942967;24;20541;-70
2023/06/28 11:51:06;;;;;;;3.30;2.40;;;28.80;63.90;;;;;;5953310;24;20472;-69
2023/06/28 11:53:33;;;;;;;3.20;1.90;;;28.20;64.90;;;;;;5956537;23;20442;-71
2023/06/28 11:56:01;;;;;;;3.00;1.63;;;27.70;65.80;;;;;;5942326;24;20471;-73
2023/06/28 11:58:30;;;;;;;2.50;1.77;;;28.20;66.20;;;;;;5937390;24;20483;-72
2023/06/28 12:00:57;;;;;;;2.83;1.87;;;28.60;63.00;;;;;;5946910;23;20448;-72
2023/06/28 12:03:35;;;;;;;4.03;2.00;;;28.50;62.60;;;;;;5959036;24;20433;-71
2023/06/28 12:06:03;;;;;;;9.60;2.10;;;28.20;63.20;;;;;;5946002;24;20520;-76
2023/06/28 12:08:37;;;;;;;2.73;1.77;;;29.10;63.40;;;;;;5951463;24;20463;-72
2023/06/28 12:11:09;;;;;;;2.00;1.73;;;29.80;61.70;;;;;;5955203;24;20464;-72
2023/06/28 12:13:37;;;;;;;4.13;1.70;;;30.30;60.10;;;;;;5940694;24;20446;-71
2023/06/28 12:16:14;;;;;;;2.80;1.77;;;30.60;60.60;;;;;;5949204;24;20491;-71
2023/06/28 12:18:57;;;;;;;4.93;2.03;;;31.00;59.50;;;;;;5939279;24;20544;-74
2023/06/28 12:21:25;;;;;;;4.17;2.03;;;31.20;60.00;;;;;;5945967;24;20447;-74
2023/06/28 12:23:54;;;;;;;3.60;2.20;;;31.90;58.10;;;;;;5939090;24;21386;-80
2023/06/28 12:26:23;;;;;;;2.80;1.83;;;31.10;58.40;;;;;;5936683;24;20443;-79
2023/06/28 12:28:51;;;;;;;3.60;1.87;;;30.10;59.20;;;;;;5941756;24;20506;-74
2023/06/28 12:31:18;;;;;;;3.17;2.07;;;29.60;60.30;;;;;;5945373;24;20442;-71
2023/06/28 12:33:52;;;;;;;1.77;1.60;;;29.00;59.70;;;;;;5943279;24;20508;-72
2023/06/28 12:36:20;;;;;;;4.50;1.87;;;27.90;61.10;;;;;;5959395;24;20474;-74
2023/06/28 12:38:50;;;;;;;4.70;1.80;;;27.90;62.90;;;;;;5944586;23;20538;-74
2023/06/28 12:41:18;;;;;;;3.20;1.60;;;28.20;64.10;;;;;;5947245;24;20498;-74
2023/06/28 12:43:56;;;;;;;5.40;2.40;;;27.70;63.80;;;;;;5949535;24;20500;-74
2023/06/28 12:46:23;;;;;;;2.70;2.00;;;27.30;64.70;;;;;;5948004;24;20443;-75
2023/06/28 12:48:54;;;;;;;2.80;2.27;;;27.20;65.90;;;;;;5950437;24;20462;-74
2023/06/28 12:51:21;;;;;;;4.30;2.17;;;27.10;66.00;;;;;;5947286;24;20434;-74